Time;durP1;ratioP1;P1;durP2;ratioP2;P2;SDS_P1;SDS_P2;PMS_P1;PMS_P2;Temp;Humidity;BMP_temperature;BMP_pressure;BME280_temperature;BME280_humidity;BME280_pressure;Samples;Min_cycle;Max_cycle;Signal;HPM_P1;HPM_P2
2021/04/05 00:00:46;;;;;;;9.63;7.13;;;;;;;2.34;82.03;99840.75;20873884;28;20226;-61
2021/04/05 00:10:54;;;;;;;11.33;7.03;;;;;;;2.30;82.70;99815.47;20866271;28;20800;-52
2021/04/05 00:20:58;;;;;;;9.00;5.87;;;;;;;2.23;84.07;99781.56;20865746;28;20314;-52
2021/04/05 00:30:59;;;;;;;9.63;6.50;;;;;;;2.19;83.48;99780.81;20822291;28;20267;-53
2021/04/05 00:41:06;;;;;;;11.33;7.03;;;;;;;2.14;83.75;99759.09;20799900;28;20228;-55
2021/04/05 00:51:07;;;;;;;8.27;6.53;;;;;;;2.13;84.28;99738.94;20818923;28;20224;-54
2021/04/05 01:01:18;;;;;;;12.50;7.63;;;;;;;2.09;83.39;99721.56;20788254;28;20564;-52
2021/04/05 01:11:21;;;;;;;11.50;7.67;;;;;;;2.04;82.63;99697.22;20844393;28;20556;-52
2021/04/05 01:21:24;;;;;;;11.80;8.50;;;;;;;1.97;83.77;99677.31;20797206;28;20220;-49
2021/04/05 01:31:24;;;;;;;10.07;7.40;;;;;;;1.90;84.64;99662.69;20813410;28;20234;-51
2021/04/05 01:41:28;;;;;;;11.13;7.37;;;;;;;1.86;84.95;99645.31;20801676;28;20846;-52
2021/04/05 01:51:28;;;;;;;12.03;7.70;;;;;;;1.79;85.30;99624.53;20805175;28;20592;-52
2021/04/05 02:01:30;;;;;;;9.40;6.53;;;;;;;1.75;85.75;99616.81;20808468;28;20223;-52
2021/04/05 02:11:38;;;;;;;10.70;7.10;;;;;;;1.64;85.80;99603.22;20795639;28;20232;-52
2021/04/05 02:21:38;;;;;;;10.93;6.87;;;;;;;1.54;87.15;99588.72;20812561;28;20220;-52
2021/04/05 02:31:42;;;;;;;9.93;7.70;;;;;;;1.35;87.30;99564.91;20788450;28;20240;-52
2021/04/05 02:51:48;;;;;;;7.67;6.53;;;;;;;1.29;87.54;99528.38;21019902;27;20332;-54
2021/04/05 03:01:48;;;;;;;8.93;6.57;;;;;;;1.25;87.91;99511.00;21045131;28;20218;-52
2021/04/05 03:11:51;;;;;;;11.77;7.20;;;;;;;1.20;88.69;99492.81;21028009;28;20221;-52
2021/04/05 03:21:52;;;;;;;8.97;6.90;;;;;;;1.18;89.32;99462.25;21002691;28;20222;-52
2021/04/05 03:31:54;;;;;;;9.73;7.27;;;;;;;1.15;88.97;99446.59;21018195;28;20226;-53
2021/04/05 03:41:58;;;;;;;12.73;8.20;;;;;;;1.16;89.39;99422.03;20993323;28;20223;-50
2021/04/05 03:52:10;;;;;;;14.17;8.13;;;;;;;1.15;90.29;99396.69;21023432;28;20240;-52
2021/04/05 04:02:20;;;;;;;11.17;8.00;;;;;;;1.07;89.64;99355.84;20949081;28;20234;-52
2021/04/05 04:12:22;;;;;;;11.63;7.93;;;;;;;1.11;90.55;99348.66;20966719;28;20325;-52
2021/04/05 04:22:23;;;;;;;10.37;7.70;;;;;;;1.27;90.83;99341.00;20962099;28;20219;-52
2021/04/05 04:32:24;;;;;;;11.37;8.13;;;;;;;1.47;89.91;99298.94;20965129;28;20564;-52
2021/04/05 04:42:25;;;;;;;12.87;8.37;;;;;;;1.74;89.10;99271.44;20963710;28;20305;-52
2021/04/05 04:52:25;;;;;;;12.20;8.67;;;;;;;2.07;87.64;99257.66;20959668;28;20222;-52
2021/04/05 05:02:26;;;;;;;12.40;8.53;;;;;;;2.43;86.97;99247.16;20970349;28;20230;-53
2021/04/05 05:12:27;;;;;;;12.50;8.57;;;;;;;2.84;86.33;99240.72;20948699;28;20543;-52
2021/04/05 05:22:27;;;;;;;16.90;11.20;;;;;;;3.24;84.02;99234.28;20958723;28;20345;-54
2021/04/05 05:32:28;;;;;;;16.15;11.80;;;;;;;3.58;79.78;99222.81;20958472;28;20349;-52
2021/04/05 05:42:31;;;;;;;16.90;11.07;;;;;;;4.03;76.50;99199.28;20959200;28;20262;-51
2021/04/05 05:52:40;;;;;;;17.57;11.30;;;;;;;4.44;74.44;99184.59;20952982;28;20228;-51
2021/04/05 06:03:04;;;;;;;16.97;11.33;;;;;;;4.94;72.35;99167.59;20972423;28;20229;-51
2021/04/05 06:13:08;;;;;;;15.73;10.47;;;;;;;5.59;72.20;99155.59;20953306;28;20680;-55
2021/04/05 06:23:37;;;;;;;17.27;11.17;;;;;;;6.21;67.30;99139.34;20969093;28;20279;-54
2021/04/05 06:33:41;;;;;;;14.17;9.73;;;;;;;6.66;71.45;99119.53;20940147;28;20225;-63
2021/04/05 06:44:00;;;;;;;14.27;8.70;;;;;;;7.00;66.95;99104.84;20967199;28;20276;-55
2021/04/05 06:54:38;;;;;;;12.73;8.70;;;;;;;7.29;64.78;99066.50;20945849;28;20215;-63
2021/04/05 07:04:48;;;;;;;11.97;8.50;;;;;;;7.56;67.22;99048.63;20960412;28;20223;-50
2021/04/05 07:14:57;;;;;;;13.50;8.67;;;;;;;7.93;66.24;99037.97;20923486;28;20303;-51
2021/04/05 07:25:07;;;;;;;13.20;8.13;;;;;;;8.44;65.07;99021.78;20954965;28;20231;-51
2021/04/05 07:35:19;;;;;;;11.97;8.37;;;;;;;9.05;63.28;99011.72;20966661;28;21011;-50
2021/04/05 07:45:52;;;;;;;12.67;6.87;;;;;;;9.39;55.56;98973.44;20887779;28;20222;-50
2021/04/05 07:55:54;;;;;;;7.43;5.60;;;;;;;9.91;60.40;98953.16;20851584;28;20217;-51
2021/04/05 08:06:26;;;;;;;7.10;5.50;;;;;;;10.33;53.00;98925.59;20859874;28;20237;-52
2021/04/05 08:16:54;;;;;;;8.83;5.13;;;;;;;10.61;54.75;98920.56;20876492;28;20227;-53
2021/04/05 08:26:57;;;;;;;11.57;6.33;;;;;;;12.29;56.25;98901.72;20849557;28;20235;-55
2021/04/05 08:37:11;;;;;;;8.27;5.97;;;;;;;12.58;53.11;98896.28;20885759;28;20251;-53
2021/04/05 08:47:28;;;;;;;9.43;6.27;;;;;;;12.39;51.95;98849.03;20885394;28;20238;-55
2021/04/05 08:57:37;;;;;;;5.87;5.23;;;;;;;12.87;49.93;98821.22;20889035;28;20309;-56
2021/04/05 09:08:02;;;;;;;9.53;5.83;;;;;;;13.42;51.31;98789.00;20863317;28;20235;-53
2021/04/05 09:18:22;;;;;;;7.80;5.77;;;;;;;13.76;51.57;98798.00;20798250;28;20223;-53
2021/04/05 09:28:26;;;;;;;7.17;5.20;;;;;;;14.00;51.95;98790.16;20812106;28;20309;-54
2021/04/05 09:38:51;;;;;;;10.30;5.23;;;;;;;14.42;45.53;98751.81;20792943;28;20230;-52
2021/04/05 09:49:15;;;;;;;7.00;4.97;;;;;;;14.53;49.39;98726.53;20871613;28;20266;-53
2021/04/05 09:59:20;;;;;;;5.43;4.80;;;;;;;14.74;46.45;98727.78;20771244;28;20242;-58
2021/04/05 10:09:27;;;;;;;7.43;4.80;;;;;;;14.87;48.40;98713.03;20810867;28;20648;-54
2021/04/05 10:19:40;;;;;;;4.90;4.40;;;;;;;14.56;45.80;98694.84;20789364;28;20619;-53
2021/04/05 10:29:42;;;;;;;7.17;4.97;;;;;;;14.60;49.23;98685.47;20791127;28;20238;-53
2021/04/05 10:39:51;;;;;;;5.77;4.50;;;;;;;14.39;47.32;98610.75;20760338;28;20216;-56
2021/04/05 10:49:53;;;;;;;5.00;4.10;;;;;;;14.41;50.68;98642.81;20797817;28;20270;-55
2021/04/05 10:59:56;;;;;;;6.47;4.20;;;;;;;14.16;49.75;98617.69;20801251;28;20289;-53
2021/04/05 11:09:59;;;;;;;7.27;4.40;;;;;;;14.40;48.95;98592.81;20785957;28;20238;-53
2021/04/05 11:20:01;;;;;;;8.00;4.10;;;;;;;15.23;49.54;98577.38;20823349;28;20241;-53
2021/04/05 11:30:04;;;;;;;6.67;4.27;;;;;;;15.29;49.73;98578.56;20800096;28;20716;-53
2021/04/05 11:40:11;;;;;;;7.97;4.97;;;;;;;15.02;49.35;98566.34;20822159;28;20263;-53
2021/04/05 11:50:17;;;;;;;6.20;4.20;;;;;;;14.56;47.12;98549.06;20781883;28;20884;-53
2021/04/05 12:00:24;;;;;;;6.63;4.10;;;;;;;14.73;49.80;98540.03;20820733;28;20220;-52
2021/04/05 12:10:28;;;;;;;6.23;4.57;;;;;;;14.51;46.30;98514.66;20785353;28;20286;-53
2021/04/05 12:20:31;;;;;;;6.47;4.50;;;;;;;14.76;49.21;98496.69;20813494;28;20224;-53
2021/04/05 12:30:33;;;;;;;7.00;4.37;;;;;;;15.25;48.52;98489.38;20790831;28;20231;-55
2021/04/05 12:40:36;;;;;;;7.00;4.30;;;;;;;15.46;48.86;98475.34;20788007;28;20255;-55
2021/04/05 12:50:37;;;;;;;7.57;4.73;;;;;;;15.16;49.87;98451.97;20804044;28;20235;-56
2021/04/05 13:00:41;;;;;;;6.77;4.23;;;;;;;14.74;48.46;98429.75;20777973;28;20211;-53
2021/04/05 13:10:57;;;;;;;8.50;4.07;;;;;;;14.41;46.74;98430.81;20814785;28;20228;-53
2021/04/05 13:21:09;;;;;;;8.27;4.50;;;;;;;14.18;49.93;98429.78;20791743;28;20230;-54
2021/04/05 13:31:11;;;;;;;9.40;4.80;;;;;;;14.10;51.20;98409.16;20812855;28;21032;-53
2021/04/05 13:41:15;;;;;;;6.47;4.27;;;;;;;14.04;50.74;98389.22;20775813;28;20228;-55
2021/04/05 13:51:16;;;;;;;6.63;4.87;;;;;;;14.14;50.64;98382.81;20791884;28;20571;-52
2021/04/05 14:01:20;;;;;;;9.93;5.20;;;;;;;14.59;49.29;98344.75;20764818;28;20222;-53
2021/04/05 14:11:29;;;;;;;9.53;5.00;;;;;;;14.34;47.20;98317.09;20783536;28;20227;-52
2021/04/05 14:21:33;;;;;;;8.23;4.00;;;;;;;14.05;48.86;98294.34;20804334;28;20237;-53
2021/04/05 14:31:37;;;;;;;6.63;3.10;;;;;;;13.95;46.67;98298.22;20792524;28;20235;-53
2021/04/05 14:41:54;;;;;;;11.70;3.27;;;;;;;13.50;47.63;98296.88;20790653;28;20218;-54
2021/04/05 14:51:57;;;;;;;4.40;3.03;;;;;;;13.24;47.77;98283.63;20759611;28;20295;-53
2021/04/05 15:02:11;;;;;;;5.17;2.70;;;;;;;13.09;48.24;98293.25;20808248;28;20212;-52
2021/04/05 15:12:19;;;;;;;9.33;5.23;;;;;;;12.32;51.35;98313.00;20786059;28;20774;-52
2021/04/05 15:22:21;;;;;;;8.47;5.60;;;;;;;11.19;58.28;98332.47;20823045;28;20591;-52
2021/04/05 15:32:22;;;;;;;23.40;7.87;;;;;;;10.65;61.66;98356.50;20766813;28;20781;-52
2021/04/05 15:42:24;;;;;;;15.07;8.47;;;;;;;8.91;76.90;98375.25;20813621;28;20231;-52
2021/04/05 15:52:25;;;;;;;15.10;9.63;;;;;;;8.45;82.82;98385.56;20802728;28;20214;-53
2021/04/05 16:02:52;;;;;;;13.30;8.90;;;;;;;8.27;84.65;98414.50;20808455;28;20826;-53
2021/04/05 16:12:59;;;;;;;9.07;6.73;;;;;;;7.92;83.82;98422.78;20819013;28;20216;-52
2021/04/05 16:23:06;;;;;;;6.03;4.87;;;;;;;6.97;92.68;98442.13;20798860;28;20234;-52
2021/04/05 16:33:12;;;;;;;7.93;4.93;;;;;;;6.47;95.04;98449.59;20819175;28;20220;-53
2021/04/05 16:43:26;;;;;;;9.67;7.30;;;;;;;6.22;95.82;98470.97;20806850;28;20232;-52
2021/04/05 16:53:29;;;;;;;4.97;3.80;;;;;;;5.95;95.80;98495.91;20881934;28;20723;-52
2021/04/05 17:03:31;;;;;;;4.07;3.20;;;;;;;5.66;96.89;98494.56;20861209;28;20293;-53
2021/04/05 17:13:37;;;;;;;1.93;1.57;;;;;;;4.51;100.00;98544.13;20878214;28;20269;-51
2021/04/05 17:23:44;;;;;;;1.67;1.37;;;;;;;3.31;100.00;98551.19;20865685;28;21141;-51
2021/04/05 17:33:52;;;;;;;1.87;1.43;;;;;;;2.96;100.00;98575.31;20888159;28;21393;-52
2021/04/05 17:44:00;;;;;;;2.83;1.83;;;;;;;2.91;100.00;98601.06;20871341;28;20263;-52
2021/04/05 17:54:12;;;;;;;2.90;2.40;;;;;;;2.94;100.00;98621.97;20862016;28;20307;-51
2021/04/05 18:04:24;;;;;;;4.07;3.67;;;;;;;2.83;100.00;98645.47;20852848;28;20243;-51
2021/04/05 18:14:49;;;;;;;5.00;4.27;;;;;;;2.73;100.00;98673.31;20852456;28;20223;-51
2021/04/05 18:25:05;;;;;;;16.40;7.87;;;;;;;2.26;100.00;98721.63;20892764;28;20270;-52
2021/04/05 18:35:20;;;;;;;5.00;3.13;;;;;;;1.66;100.00;98745.09;20867169;28;20580;-52
2021/04/05 18:45:34;;;;;;;6.10;3.43;;;;;;;1.30;100.00;98721.59;20918936;28;20228;-54
2021/04/05 18:55:37;;;;;;;2.87;2.60;;;;;;;1.29;100.00;98740.06;20777835;28;20242;-54
2021/04/05 19:06:06;;;;;;;2.73;2.50;;;;;;;1.26;100.00;98761.25;20767855;28;20262;-54
2021/04/05 19:16:22;;;;;;;3.80;2.77;;;;;;;1.30;100.00;98757.53;20790048;28;20228;-52
2021/04/05 19:26:59;;;;;;;3.80;3.23;;;;;;;1.38;100.00;98787.75;20749031;28;20228;-59
2021/04/05 19:37:18;;;;;;;3.60;3.30;;;;;;;1.40;100.00;98780.63;20774955;28;20252;-57
2021/04/05 19:47:37;;;;;;;4.90;3.57;;;;;;;1.49;100.00;98783.69;20814575;28;20269;-54
2021/04/05 19:57:41;;;;;;;3.80;3.40;;;;;;;1.45;100.00;98780.38;20865851;28;21084;-54
2021/04/05 20:07:46;;;;;;;4.67;3.23;;;;;;;1.36;100.00;98788.75;20846162;28;20278;-54
2021/04/05 20:17:57;;;;;;;9.67;5.40;;;;;;;1.36;100.00;98772.97;20853860;28;20694;-53
2021/04/05 20:28:08;;;;;;;3.27;2.97;;;;;;;1.40;100.00;98803.44;20809041;28;20641;-54
2021/04/05 20:48:33;;;;;;;7.93;4.17;;;;;;;1.43;100.00;98834.81;20827501;28;20586;-61
2021/04/05 20:58:41;;;;;;;4.33;3.20;;;;;;;1.47;100.00;98824.97;20798021;28;20227;-55
2021/04/05 21:08:42;;;;;;;3.77;2.50;;;;;;;1.35;100.00;98821.19;20845851;28;20315;-60
2021/04/05 21:18:45;;;;;;;5.07;2.85;;;;;;;1.17;100.00;98851.03;20829367;28;20228;-54
2021/04/05 21:28:58;;;;;;;4.20;2.83;;;;;;;1.26;100.00;98861.94;20790827;28;20231;-55
2021/04/05 21:39:05;;;;;;;6.13;3.13;;;;;;;1.27;100.00;98860.16;20792506;28;20224;-54
2021/04/05 21:49:09;;;;;;;4.93;3.07;;;;;;;1.15;100.00;98863.38;20874557;28;20247;-55
2021/04/05 21:59:10;;;;;;;4.57;3.37;;;;;;;1.06;100.00;98846.31;20798944;28;20228;-55
2021/04/05 22:09:11;;;;;;;4.17;3.23;;;;;;;1.24;100.00;98849.78;20818657;28;20213;-55
2021/04/05 22:19:27;;;;;;;3.70;3.00;;;;;;;1.11;100.00;98867.09;20796775;28;20311;-56
2021/04/05 22:29:29;;;;;;;3.20;2.67;;;;;;;1.05;100.00;98852.50;20823135;28;20681;-55
2021/04/05 22:39:31;;;;;;;4.33;2.93;;;;;;;0.99;100.00;98864.13;20851381;28;20231;-55
2021/04/05 22:49:36;;;;;;;9.17;4.63;;;;;;;0.93;100.00;98869.69;20892146;28;20225;-55
2021/04/05 22:59:41;;;;;;;3.43;2.60;;;;;;;0.85;100.00;98879.69;20891172;28;20207;-55
2021/04/05 23:09:43;;;;;;;5.80;3.10;;;;;;;0.93;100.00;98874.94;20864471;28;20219;-55
2021/04/05 23:19:45;;;;;;;3.40;2.97;;;;;;;1.11;100.00;98883.69;20894384;28;20217;-55
2021/04/05 23:29:57;;;;;;;3.90;3.17;;;;;;;1.30;100.00;98894.16;20878442;28;20207;-55
2021/04/05 23:40:03;;;;;;;4.97;3.23;;;;;;;1.33;100.00;98872.97;20893427;28;20303;-55
2021/04/05 23:50:04;;;;;;;9.63;5.57;;;;;;;1.28;100.00;98881.09;20872097;28;20219;-55
